N858SX KSDF-KRMN
Flight info
| Callsign | N858SX |
|---|---|
| Flight time | 0h 56m |
| Altitude | 45000 |
| Route | EEVAA1 SHIPR |
| Aircraft | C750/M-SBDE3FGHRWXY/S |
Departure
| Time | 2026-05-05 23:09 |
|---|---|
| Airport | Louisville Muhammad Ali International Airport (KSDF) |
Arrival
| Time | 2026-05-06 00:06 |
|---|---|
| Airport | Stafford Regional Airport (KRMN) |
| Time | Latitude | Longitude | Altitude | Speed | Heading |
|---|---|---|---|---|---|
| 2026-05-05 22:55 | 38.18383 | -85.72538 | 505 ft | 0 kts | 239° |
| 2026-05-05 23:04 | 38.18346 | -85.72632 | 505 ft | 11 kts | 267° |
| 2026-05-05 23:04 | 38.18332 | -85.72724 | 505 ft | 9 kts | 258° |
| 2026-05-05 23:04 | 38.18293 | -85.72779 | 505 ft | 8 kts | 191° |
| 2026-05-05 23:04 | 38.18230 | -85.72787 | 505 ft | 11 kts | 179° |
| 2026-05-05 23:05 | 38.18091 | -85.72755 | 505 ft | 31 kts | 166° |
| 2026-05-05 23:05 | 38.17883 | -85.72684 | 505 ft | 31 kts | 165° |
| 2026-05-05 23:05 | 38.17702 | -85.72622 | 505 ft | 22 kts | 164° |
| 2026-05-05 23:05 | 38.17596 | -85.72585 | 505 ft | 9 kts | 164° |
| 2026-05-05 23:06 | 38.17536 | -85.72564 | 505 ft | 9 kts | 164° |
| 2026-05-05 23:06 | 38.17475 | -85.72544 | 505 ft | 9 kts | 167° |
| 2026-05-05 23:06 | 38.17395 | -85.72517 | 505 ft | 16 kts | 165° |
| 2026-05-05 23:06 | 38.17237 | -85.72463 | 505 ft | 16 kts | 163° |
| 2026-05-05 23:07 | 38.17102 | -85.72417 | 505 ft | 17 kts | 159° |
| 2026-05-05 23:07 | 38.17009 | -85.72411 | 505 ft | 9 kts | 242° |
| 2026-05-05 23:07 | 38.16989 | -85.72466 | 505 ft | 4 kts | 253° |
| 2026-05-05 23:07 | 38.17014 | -85.72535 | 505 ft | 17 kts | 327° |
| 2026-05-05 23:08 | 38.17136 | -85.72591 | 505 ft | 2 kts | 346° |
| 2026-05-05 23:08 | 38.17137 | -85.72591 | 505 ft | 1 kts | 346° |
| 2026-05-05 23:08 | 38.17381 | -85.72671 | 505 ft | 88 kts | 343° |
| 2026-05-05 23:09 | 38.18308 | -85.72920 | 633 ft | 168 kts | 354° |
| 2026-05-05 23:09 | 38.19702 | -85.73185 | 1387 ft | 216 kts | 347° |
| 2026-05-05 23:09 | 38.21385 | -85.73616 | 2259 ft | 258 kts | 343° |
| 2026-05-05 23:09 | 38.23155 | -85.74519 | 3033 ft | 291 kts | 317° |
| 2026-05-05 23:10 | 38.24538 | -85.76485 | 3788 ft | 325 kts | 310° |
| 2026-05-05 23:10 | 38.26181 | -85.78212 | 4536 ft | 355 kts | 312° |
| 2026-05-05 23:10 | 38.28043 | -85.80442 | 5285 ft | 389 kts | 319° |
| 2026-05-05 23:10 | 38.30530 | -85.81728 | 5997 ft | 381 kts | 346° |
| 2026-05-05 23:11 | 38.33068 | -85.81493 | 6650 ft | 362 kts | 14° |
| 2026-05-05 23:11 | 38.35136 | -85.79965 | 7296 ft | 343 kts | 43° |
| 2026-05-05 23:11 | 38.36353 | -85.77509 | 7964 ft | 318 kts | 75° |
| 2026-05-05 23:11 | 38.36436 | -85.74917 | 8629 ft | 284 kts | 110° |
| 2026-05-05 23:12 | 38.35534 | -85.72957 | 9300 ft | 240 kts | 147° |
| 2026-05-05 23:12 | 38.34352 | -85.71675 | 9974 ft | 242 kts | 146° |
| 2026-05-05 23:12 | 38.33878 | -85.71114 | 10269 ft | 251 kts | 144° |
| 2026-05-05 23:12 | 38.32982 | -85.70011 | 10802 ft | 269 kts | 143° |
| 2026-05-05 23:13 | 38.32836 | -85.69828 | 10887 ft | 272 kts | 143° |
| 2026-05-05 23:13 | 38.31483 | -85.68105 | 11632 ft | 296 kts | 142° |
| 2026-05-05 23:13 | 38.30002 | -85.66202 | 12378 ft | 319 kts | 141° |
| 2026-05-05 23:13 | 38.28396 | -85.64141 | 13127 ft | 341 kts | 141° |
| 2026-05-05 23:14 | 38.26676 | -85.61934 | 13873 ft | 362 kts | 140° |
| 2026-05-05 23:14 | 38.24859 | -85.59609 | 14619 ft | 381 kts | 140° |
| 2026-05-05 23:14 | 38.22919 | -85.57286 | 15347 ft | 395 kts | 146° |
| 2026-05-05 23:14 | 38.20721 | -85.55039 | 16092 ft | 412 kts | 145° |
| 2026-05-05 23:15 | 38.18492 | -85.52708 | 16823 ft | 426 kts | 146° |
| 2026-05-05 23:15 | 38.16197 | -85.50301 | 17659 ft | 437 kts | 145° |
| 2026-05-05 23:15 | 38.13858 | -85.47871 | 18646 ft | 442 kts | 145° |
| 2026-05-05 23:15 | 38.11471 | -85.45375 | 19635 ft | 445 kts | 146° |
| 2026-05-05 23:16 | 38.09110 | -85.42918 | 20603 ft | 449 kts | 146° |
| 2026-05-05 23:16 | 38.06690 | -85.40402 | 21580 ft | 451 kts | 146° |
| 2026-05-05 23:16 | 38.04294 | -85.37908 | 22557 ft | 452 kts | 146° |
| 2026-05-05 23:16 | 38.01850 | -85.35371 | 23547 ft | 452 kts | 146° |
| 2026-05-05 23:17 | 37.99453 | -85.32883 | 24510 ft | 452 kts | 147° |
| 2026-05-05 23:17 | 37.97115 | -85.30319 | 25463 ft | 457 kts | 139° |
| 2026-05-05 23:17 | 37.95380 | -85.26897 | 26407 ft | 465 kts | 116° |
| 2026-05-05 23:17 | 37.94587 | -85.23045 | 27202 ft | 463 kts | 99° |
| 2026-05-05 23:18 | 37.93991 | -85.19048 | 27824 ft | 462 kts | 103° |
| 2026-05-05 23:18 | 37.93335 | -85.15086 | 28453 ft | 461 kts | 103° |
| 2026-05-05 23:18 | 37.92667 | -85.11140 | 29065 ft | 460 kts | 103° |
| 2026-05-05 23:18 | 37.92003 | -85.07207 | 29685 ft | 458 kts | 102° |
| 2026-05-05 23:19 | 37.91780 | -85.03467 | 30250 ft | 452 kts | 82° |
| 2026-05-05 23:19 | 37.92108 | -84.99432 | 30823 ft | 450 kts | 78° |
| 2026-05-05 23:19 | 37.92473 | -84.95537 | 31311 ft | 450 kts | 78° |
| 2026-05-05 23:19 | 37.92824 | -84.91634 | 31800 ft | 451 kts | 78° |
| 2026-05-05 23:20 | 37.93171 | -84.87724 | 32288 ft | 451 kts | 78° |
| 2026-05-05 23:20 | 37.93520 | -84.83793 | 32776 ft | 451 kts | 78° |
| 2026-05-05 23:20 | 37.93859 | -84.79921 | 33260 ft | 450 kts | 78° |
| 2026-05-05 23:20 | 37.94203 | -84.76030 | 33772 ft | 449 kts | 77° |
| 2026-05-05 23:21 | 37.94542 | -84.72108 | 34341 ft | 448 kts | 77° |
| 2026-05-05 23:21 | 37.94879 | -84.68244 | 34890 ft | 446 kts | 77° |
| 2026-05-05 23:21 | 37.95211 | -84.64419 | 35454 ft | 444 kts | 77° |
| 2026-05-05 23:21 | 37.95536 | -84.60609 | 36005 ft | 441 kts | 76° |
| 2026-05-05 23:22 | 37.95867 | -84.56798 | 36575 ft | 438 kts | 77° |
| 2026-05-05 23:22 | 37.96190 | -84.52985 | 37141 ft | 435 kts | 76° |
| 2026-05-05 23:22 | 37.96509 | -84.49252 | 37552 ft | 435 kts | 76° |
| 2026-05-05 23:22 | 37.96840 | -84.45432 | 38009 ft | 433 kts | 75° |
| 2026-05-05 23:23 | 37.97188 | -84.41695 | 38474 ft | 432 kts | 74° |
| 2026-05-05 23:23 | 37.97531 | -84.37974 | 38929 ft | 430 kts | 75° |
| 2026-05-05 23:23 | 37.97865 | -84.34290 | 39395 ft | 428 kts | 76° |
| 2026-05-05 23:23 | 37.98199 | -84.30617 | 39679 ft | 430 kts | 76° |
| 2026-05-05 23:24 | 37.98532 | -84.26894 | 40003 ft | 430 kts | 76° |
| 2026-05-05 23:24 | 37.98868 | -84.23180 | 40311 ft | 431 kts | 76° |
| 2026-05-05 23:24 | 37.99196 | -84.19585 | 40610 ft | 431 kts | 76° |
| 2026-05-05 23:24 | 37.99511 | -84.15951 | 40984 ft | 432 kts | 76° |
| 2026-05-05 23:25 | 37.99840 | -84.12264 | 41312 ft | 434 kts | 76° |
| 2026-05-05 23:25 | 38.00171 | -84.08598 | 41629 ft | 437 kts | 77° |
| 2026-05-05 23:25 | 38.00503 | -84.04823 | 41958 ft | 439 kts | 77° |
| 2026-05-05 23:25 | 38.00832 | -84.01028 | 42297 ft | 441 kts | 77° |
| 2026-05-05 23:26 | 38.01171 | -83.97202 | 42629 ft | 443 kts | 77° |
| 2026-05-05 23:26 | 38.01504 | -83.93370 | 42979 ft | 444 kts | 77° |
| 2026-05-05 23:26 | 38.01839 | -83.89516 | 43321 ft | 446 kts | 78° |
| 2026-05-05 23:26 | 38.02175 | -83.85647 | 43664 ft | 447 kts | 78° |
| 2026-05-05 23:27 | 38.02504 | -83.81793 | 43998 ft | 448 kts | 78° |
| 2026-05-05 23:27 | 38.02835 | -83.77937 | 44348 ft | 449 kts | 78° |
| 2026-05-05 23:27 | 38.03157 | -83.74135 | 44678 ft | 450 kts | 78° |
| 2026-05-05 23:27 | 38.03483 | -83.70368 | 44882 ft | 453 kts | 78° |
| 2026-05-05 23:28 | 38.04156 | -83.62386 | 44899 ft | 470 kts | 78° |
| 2026-05-05 23:28 | 38.04853 | -83.54100 | 44891 ft | 486 kts | 78° |
| 2026-05-05 23:29 | 38.05570 | -83.45498 | 44898 ft | 503 kts | 78° |
| 2026-05-05 23:29 | 38.06303 | -83.36608 | 44919 ft | 520 kts | 78° |
| 2026-05-05 23:30 | 38.07050 | -83.27491 | 44903 ft | 536 kts | 80° |
| 2026-05-05 23:30 | 38.07815 | -83.18033 | 44895 ft | 551 kts | 80° |
| 2026-05-05 23:31 | 38.08578 | -83.08466 | 44893 ft | 565 kts | 80° |
| 2026-05-05 23:31 | 38.09372 | -82.98505 | 44885 ft | 578 kts | 80° |
| 2026-05-05 23:32 | 38.10159 | -82.88406 | 44897 ft | 585 kts | 80° |
| 2026-05-05 23:32 | 38.10936 | -82.78433 | 44897 ft | 589 kts | 80° |
| 2026-05-05 23:33 | 38.11641 | -82.69212 | 44905 ft | 589 kts | 80° |
| 2026-05-05 23:33 | 38.12463 | -82.58311 | 44885 ft | 589 kts | 80° |
| 2026-05-05 23:34 | 38.13067 | -82.50266 | 44891 ft | 589 kts | 80° |
| 2026-05-05 23:35 | 38.14556 | -82.30066 | 44898 ft | 588 kts | 81° |
| 2026-05-05 23:35 | 38.14938 | -82.24889 | 44892 ft | 588 kts | 81° |
| 2026-05-05 23:36 | 38.16595 | -82.01641 | 44910 ft | 587 kts | 80° |
| 2026-05-05 23:37 | 38.17433 | -81.89645 | 44904 ft | 587 kts | 81° |
| 2026-05-05 23:37 | 38.18158 | -81.79183 | 44910 ft | 587 kts | 81° |
| 2026-05-05 23:38 | 38.18941 | -81.67606 | 44910 ft | 586 kts | 81° |
| 2026-05-05 23:38 | 38.19630 | -81.57380 | 44930 ft | 586 kts | 80° |
| 2026-05-05 23:39 | 38.20311 | -81.47103 | 44921 ft | 586 kts | 81° |
| 2026-05-05 23:39 | 38.20977 | -81.36813 | 44944 ft | 586 kts | 81° |
| 2026-05-05 23:40 | 38.21645 | -81.26475 | 44941 ft | 586 kts | 81° |
| 2026-05-05 23:40 | 38.22301 | -81.16248 | 44918 ft | 586 kts | 81° |
| 2026-05-05 23:41 | 38.22945 | -81.05960 | 44937 ft | 585 kts | 81° |
| 2026-05-05 23:41 | 38.23580 | -80.95638 | 44953 ft | 586 kts | 81° |
| 2026-05-05 23:42 | 38.24209 | -80.85349 | 44945 ft | 586 kts | 81° |
| 2026-05-05 23:42 | 38.24823 | -80.75111 | 44970 ft | 586 kts | 81° |
| 2026-05-05 23:43 | 38.25436 | -80.64791 | 44988 ft | 585 kts | 81° |
| 2026-05-05 23:43 | 38.26032 | -80.54482 | 44978 ft | 585 kts | 81° |
| 2026-05-05 23:44 | 38.26619 | -80.44237 | 45008 ft | 584 kts | 81° |
| 2026-05-05 23:44 | 38.27184 | -80.34270 | 44929 ft | 557 kts | 81° |
| 2026-05-05 23:45 | 38.27449 | -80.29404 | 44250 ft | 548 kts | 81° |
| 2026-05-05 23:45 | 38.27717 | -80.24668 | 43688 ft | 546 kts | 81° |
| 2026-05-05 23:45 | 38.27979 | -80.19882 | 43110 ft | 544 kts | 81° |
| 2026-05-05 23:45 | 38.28247 | -80.15038 | 42567 ft | 562 kts | 80° |
| 2026-05-05 23:46 | 38.28518 | -80.10046 | 42048 ft | 580 kts | 81° |
| 2026-05-05 23:46 | 38.28798 | -80.04880 | 41499 ft | 594 kts | 80° |
| 2026-05-05 23:46 | 38.29072 | -79.99668 | 40943 ft | 601 kts | 80° |
| 2026-05-05 23:46 | 38.29356 | -79.94343 | 40385 ft | 603 kts | 80° |
| 2026-05-05 23:47 | 38.29633 | -79.89062 | 39848 ft | 606 kts | 80° |
| 2026-05-05 23:47 | 38.29905 | -79.83748 | 39322 ft | 606 kts | 80° |
| 2026-05-05 23:47 | 38.30186 | -79.78449 | 38836 ft | 592 kts | 80° |
| 2026-05-05 23:47 | 38.30445 | -79.73296 | 38104 ft | 583 kts | 80° |
| 2026-05-05 23:48 | 38.30700 | -79.68227 | 37423 ft | 576 kts | 80° |
| 2026-05-05 23:48 | 38.30955 | -79.63173 | 36730 ft | 569 kts | 80° |
| 2026-05-05 23:48 | 38.31202 | -79.58240 | 36058 ft | 563 kts | 80° |
| 2026-05-05 23:48 | 38.31441 | -79.53283 | 35393 ft | 556 kts | 80° |
| 2026-05-05 23:49 | 38.31684 | -79.48444 | 34734 ft | 550 kts | 80° |
| 2026-05-05 23:49 | 38.31917 | -79.43640 | 34086 ft | 543 kts | 80° |
| 2026-05-05 23:49 | 38.32147 | -79.38885 | 33473 ft | 537 kts | 81° |
| 2026-05-05 23:49 | 38.32381 | -79.34174 | 32881 ft | 526 kts | 82° |
| 2026-05-05 23:50 | 38.32594 | -79.29626 | 31920 ft | 514 kts | 83° |
| 2026-05-05 23:50 | 38.32802 | -79.25322 | 30975 ft | 504 kts | 84° |
| 2026-05-05 23:50 | 38.33011 | -79.20964 | 29978 ft | 493 kts | 85° |
| 2026-05-05 23:50 | 38.33203 | -79.16675 | 28936 ft | 483 kts | 85° |
| 2026-05-05 23:51 | 38.33387 | -79.12448 | 27874 ft | 475 kts | 85° |
| 2026-05-05 23:51 | 38.33569 | -79.08348 | 26839 ft | 466 kts | 85° |
| 2026-05-05 23:51 | 38.33750 | -79.04288 | 25801 ft | 459 kts | 85° |
| 2026-05-05 23:51 | 38.33931 | -79.00244 | 24757 ft | 452 kts | 85° |
| 2026-05-05 23:52 | 38.34108 | -78.96310 | 23710 ft | 445 kts | 85° |
| 2026-05-05 23:52 | 38.34283 | -78.92487 | 22692 ft | 440 kts | 86° |
| 2026-05-05 23:52 | 38.34455 | -78.88577 | 21671 ft | 433 kts | 86° |
| 2026-05-05 23:52 | 38.34624 | -78.84792 | 20670 ft | 426 kts | 87° |
| 2026-05-05 23:53 | 38.34782 | -78.81094 | 19669 ft | 419 kts | 88° |
| 2026-05-05 23:53 | 38.34938 | -78.77446 | 19025 ft | 402 kts | 88° |
| 2026-05-05 23:53 | 38.35083 | -78.74000 | 18936 ft | 373 kts | 89° |
| 2026-05-05 23:53 | 38.35219 | -78.70675 | 18990 ft | 386 kts | 89° |
| 2026-05-05 23:54 | 38.35358 | -78.67310 | 18939 ft | 374 kts | 89° |
| 2026-05-05 23:54 | 38.35492 | -78.64087 | 18930 ft | 368 kts | 89° |
| 2026-05-05 23:54 | 38.35627 | -78.60735 | 18972 ft | 392 kts | 89° |
| 2026-05-05 23:54 | 38.35772 | -78.57145 | 18979 ft | 416 kts | 88° |
| 2026-05-05 23:55 | 38.35925 | -78.53393 | 18965 ft | 437 kts | 88° |
| 2026-05-05 23:55 | 38.36084 | -78.49438 | 18965 ft | 456 kts | 88° |
| 2026-05-05 23:55 | 38.36252 | -78.45346 | 18960 ft | 472 kts | 88° |
| 2026-05-05 23:55 | 38.36419 | -78.41132 | 18968 ft | 487 kts | 88° |
| 2026-05-05 23:56 | 38.36591 | -78.36814 | 18960 ft | 484 kts | 88° |
| 2026-05-05 23:56 | 38.36755 | -78.32597 | 18924 ft | 462 kts | 89° |
| 2026-05-05 23:56 | 38.36911 | -78.28602 | 18906 ft | 445 kts | 89° |
| 2026-05-05 23:56 | 38.37059 | -78.24770 | 18861 ft | 431 kts | 89° |
| 2026-05-05 23:57 | 38.37200 | -78.21034 | 17839 ft | 427 kts | 89° |
| 2026-05-05 23:57 | 38.37341 | -78.17313 | 16832 ft | 415 kts | 89° |
| 2026-05-05 23:57 | 38.37472 | -78.13709 | 15767 ft | 406 kts | 89° |
| 2026-05-05 23:57 | 38.37601 | -78.10152 | 14790 ft | 397 kts | 89° |
| 2026-05-05 23:58 | 38.37730 | -78.06681 | 13792 ft | 390 kts | 89° |
| 2026-05-05 23:58 | 38.37854 | -78.03310 | 12799 ft | 383 kts | 89° |
| 2026-05-05 23:58 | 38.37977 | -77.99967 | 11801 ft | 378 kts | 89° |
| 2026-05-05 23:58 | 38.38093 | -77.96656 | 10836 ft | 372 kts | 89° |
| 2026-05-05 23:59 | 38.38211 | -77.93433 | 9771 ft | 360 kts | 89° |
| 2026-05-05 23:59 | 38.38320 | -77.90344 | 8758 ft | 342 kts | 89° |
| 2026-05-05 23:59 | 38.38431 | -77.87425 | 7839 ft | 318 kts | 90° |
| 2026-05-05 23:59 | 38.38523 | -77.84656 | 7149 ft | 309 kts | 91° |
| 2026-05-06 00:00 | 38.38615 | -77.81982 | 7018 ft | 294 kts | 91° |
| 2026-05-06 00:00 | 38.38701 | -77.79446 | 6991 ft | 281 kts | 91° |
| 2026-05-06 00:00 | 38.38784 | -77.77021 | 6961 ft | 266 kts | 92° |
| 2026-05-06 00:00 | 38.38863 | -77.74721 | 6972 ft | 262 kts | 92° |
| 2026-05-06 00:01 | 38.38938 | -77.72314 | 6995 ft | 277 kts | 91° |
| 2026-05-06 00:01 | 38.39021 | -77.69813 | 7017 ft | 290 kts | 91° |
| 2026-05-06 00:01 | 38.39106 | -77.67185 | 7021 ft | 302 kts | 91° |
| 2026-05-06 00:01 | 38.39196 | -77.64463 | 7014 ft | 313 kts | 91° |
| 2026-05-06 00:02 | 38.39294 | -77.61651 | 7011 ft | 322 kts | 90° |
| 2026-05-06 00:02 | 38.39386 | -77.58768 | 7009 ft | 330 kts | 90° |
| 2026-05-06 00:02 | 38.39482 | -77.55838 | 7005 ft | 325 kts | 90° |
| 2026-05-06 00:02 | 38.39640 | -77.53019 | 6983 ft | 315 kts | 81° |
| 2026-05-06 00:03 | 38.40535 | -77.50441 | 6273 ft | 334 kts | 56° |
| 2026-05-06 00:03 | 38.42032 | -77.48114 | 4598 ft | 349 kts | 50° |
| 2026-05-06 00:03 | 38.43408 | -77.45898 | 3985 ft | 289 kts | 60° |
| 2026-05-06 00:03 | 38.44781 | -77.44537 | 3956 ft | 227 kts | 355° |
| 2026-05-06 00:04 | 38.45902 | -77.45512 | 2681 ft | 207 kts | 270° |
| 2026-05-06 00:04 | 38.45827 | -77.47193 | 2326 ft | 173 kts | 250° |
| 2026-05-06 00:04 | 38.45206 | -77.48360 | 1920 ft | 158 kts | 207° |
| 2026-05-06 00:04 | 38.44099 | -77.48509 | 1257 ft | 179 kts | 175° |
| 2026-05-06 00:05 | 38.41635 | -77.47277 | 578 ft | 165 kts | 154° |
| 2026-05-06 00:05 | 38.40764 | -77.46564 | 318 ft | 139 kts | 148° |
| 2026-05-06 00:05 | 38.40114 | -77.45884 | 186 ft | 78 kts | 140° |
| 2026-05-06 00:06 | 38.39964 | -77.45728 | 172 ft | 8 kts | 139° |
| 2026-05-06 00:06 | 38.39965 | -77.45727 | 173 ft | 0 kts | 272° |
| 2026-05-06 00:06 | 38.39967 | -77.45728 | 173 ft | 0 kts | 82° |
| 2026-05-06 00:06 | 38.39968 | -77.45723 | 173 ft | 0 kts | 12° |
| 2026-05-06 00:07 | 38.39968 | -77.45682 | 174 ft | 10 kts | 107° |
| 2026-05-06 00:07 | 38.39988 | -77.45613 | 179 ft | 7 kts | 54° |
| 2026-05-06 00:07 | 38.39992 | -77.45606 | 180 ft | 0 kts | 54° |
| 2026-05-06 00:08 | 38.39996 | -77.45583 | 182 ft | 5 kts | 109° |
| 2026-05-06 00:08 | 38.39877 | -77.45441 | 182 ft | 53 kts | 140° |
| 2026-05-06 00:08 | 38.39782 | -77.45274 | 192 ft | 9 kts | 63° |
| 2026-05-06 00:08 | 38.39791 | -77.45243 | 195 ft | 0 kts | 101° |
| 2026-05-06 00:09 | 38.39749 | -77.45151 | 200 ft | 47 kts | 122° |
| 2026-05-06 00:09 | 38.39691 | -77.45035 | 200 ft | 0 kts | 48° |